createdAt,value
2023-04-27T00:01:17.398Z,0.73
2023-04-27T00:04:08.051Z,0.82
2023-04-27T00:06:56.856Z,1.13
2023-04-27T00:09:45.527Z,0.70
2023-04-27T00:12:35.615Z,0.60
2023-04-27T00:15:24.940Z,1.50
2023-04-27T00:18:13.593Z,0.50
2023-04-27T00:21:03.602Z,2.40
2023-04-27T00:23:52.120Z,0.60
2023-04-27T00:26:40.732Z,0.80
2023-04-27T00:29:29.312Z,0.55
2023-04-27T00:32:17.953Z,0.50
2023-04-27T00:35:07.138Z,0.55
2023-04-27T00:37:57.190Z,0.90
2023-04-27T00:40:45.831Z,0.50
2023-04-27T00:43:35.578Z,0.65
2023-04-27T00:46:24.397Z,0.95
2023-04-27T00:49:13.252Z,1.70
2023-04-27T00:52:02.060Z,1.33
2023-04-27T00:54:53.880Z,1.52
2023-04-27T00:57:42.766Z,0.57
2023-04-27T01:00:31.671Z,0.80
2023-04-27T01:03:20.590Z,0.52
2023-04-27T01:06:09.408Z,1.25
2023-04-27T01:08:58.063Z,0.60
2023-04-27T01:11:48.050Z,0.43
2023-04-27T01:14:38.200Z,0.45
2023-04-27T01:17:26.905Z,1.23
2023-04-27T01:20:15.787Z,0.40
2023-04-27T01:23:04.524Z,0.43
2023-04-27T01:25:54.508Z,0.50
2023-04-27T01:28:43.302Z,0.35
2023-04-27T01:31:32.156Z,0.73
2023-04-27T01:34:20.887Z,0.60
2023-04-27T01:37:09.616Z,0.52
2023-04-27T01:39:58.274Z,0.95
2023-04-27T01:42:48.270Z,1.10
2023-04-27T01:45:36.844Z,0.55
2023-04-27T01:48:25.506Z,0.20
2023-04-27T01:51:14.092Z,0.88
2023-04-27T01:54:02.824Z,2.60
2023-04-27T01:56:51.412Z,1.65
2023-04-27T01:59:41.498Z,0.47
2023-04-27T02:02:30.236Z,0.40
2023-04-27T02:05:19.212Z,0.30
2023-04-27T02:08:07.899Z,0.30
2023-04-27T02:10:56.630Z,0.82
2023-04-27T02:13:45.633Z,0.35
2023-04-27T02:16:35.843Z,3.63
2023-04-27T02:19:24.522Z,2.45
2023-04-27T02:22:13.091Z,1.08
2023-04-27T02:25:01.726Z,0.93
2023-04-27T02:27:50.456Z,0.40
2023-04-27T02:30:39.480Z,0.38
2023-04-27T02:33:29.520Z,1.17
2023-04-27T02:36:18.580Z,1.23
2023-04-27T02:39:07.194Z,0.20
2023-04-27T02:41:55.868Z,0.50
2023-04-27T02:44:44.573Z,0.38
2023-04-27T02:47:33.164Z,0.35
2023-04-27T02:50:23.409Z,0.32
2023-04-27T02:53:12.192Z,0.73
2023-04-27T02:56:00.856Z,0.90
2023-04-27T02:58:49.486Z,0.50
2023-04-27T03:01:38.180Z,0.45
2023-04-27T03:04:28.258Z,0.28
2023-04-27T03:07:18.452Z,0.45
2023-04-27T03:10:07.610Z,1.05
2023-04-27T03:12:56.261Z,0.10
2023-04-27T03:15:44.881Z,1.40
2023-04-27T03:18:33.499Z,0.20
2023-04-27T03:21:22.103Z,0.10
2023-04-27T03:24:12.159Z,1.15
2023-04-27T03:27:00.968Z,0.20
2023-04-27T03:29:53.550Z,0.20
2023-04-27T03:32:42.186Z,0.20
2023-04-27T03:35:30.981Z,2.33
2023-04-27T03:38:19.604Z,1.20
2023-04-27T03:41:09.642Z,0.47
2023-04-27T03:43:58.300Z,0.10
2023-04-27T03:46:46.906Z,1.13
2023-04-27T03:49:35.561Z,0.55
2023-04-27T03:52:24.204Z,0.32
2023-04-27T03:55:13.499Z,0.35
2023-04-27T03:58:03.448Z,0.32
2023-04-27T04:00:52.205Z,0.15
2023-04-27T04:03:40.950Z,1.92
2023-04-27T04:06:29.923Z,0.57
2023-04-27T04:09:18.589Z,0.80
2023-04-27T04:12:07.793Z,0.20
2023-04-27T04:14:58.129Z,0.40
2023-04-27T04:17:47.451Z,0.20
2023-04-27T04:20:36.953Z,0.10
2023-04-27T04:23:25.949Z,2.05
2023-04-27T04:26:14.938Z,2.63
2023-04-27T04:29:03.813Z,0.20
2023-04-27T04:31:53.922Z,0.38
2023-04-27T04:34:42.563Z,0.88
2023-04-27T04:37:31.440Z,1.20
2023-04-27T04:40:20.102Z,1.50
2023-04-27T04:43:08.755Z,2.65
2023-04-27T04:45:57.396Z,0.75
2023-04-27T04:48:47.550Z,2.65
2023-04-27T04:51:36.551Z,0.13
2023-04-27T04:54:25.338Z,0.10
2023-04-27T04:57:13.980Z,3.13
2023-04-27T05:00:04.295Z,0.10
2023-04-27T05:02:54.796Z,0.60
2023-04-27T05:05:54.352Z,1.80
2023-04-27T05:08:43.086Z,1.58
2023-04-27T05:11:32.499Z,0.30
2023-04-27T05:14:21.264Z,0.20
2023-04-27T05:17:13.389Z,1.15
2023-04-27T05:20:02.053Z,0.20
2023-04-27T05:22:52.163Z,1.70
2023-04-27T05:25:42.543Z,3.50
2023-04-27T05:28:31.286Z,2.72
2023-04-27T05:31:20.354Z,3.80
2023-04-27T05:34:10.028Z,1.92
2023-04-27T05:36:58.625Z,0.98
2023-04-27T05:39:48.658Z,2.47
2023-04-27T05:42:37.453Z,0.47
2023-04-27T05:45:26.035Z,0.20
2023-04-27T05:48:15.129Z,0.20
2023-04-27T05:51:04.797Z,4.28
2023-04-27T05:53:55.304Z,4.25
2023-04-27T05:56:45.432Z,0.45
2023-04-27T05:59:34.136Z,0.70
2023-04-27T06:02:22.987Z,1.98
2023-04-27T06:05:11.901Z,0.68
2023-04-27T06:08:00.485Z,1.95
2023-04-27T06:10:49.322Z,2.05
2023-04-27T06:13:39.313Z,1.17
2023-04-27T06:16:28.094Z,0.95
2023-04-27T06:19:17.098Z,0.55
2023-04-27T06:22:05.826Z,2.13
2023-04-27T06:24:54.440Z,0.70
2023-04-27T06:27:43.145Z,0.15
2023-04-27T06:30:33.296Z,0.50
2023-04-27T06:33:21.950Z,0.10
2023-04-27T06:36:10.853Z,0.60
2023-04-27T06:39:00.135Z,0.10
2023-04-27T06:41:48.737Z,0.32
2023-04-27T06:44:37.604Z,0.45
2023-04-27T06:47:27.710Z,0.93
2023-04-27T06:50:17.374Z,0.05
2023-04-27T06:53:06.078Z,0.90
2023-04-27T06:55:54.722Z,2.47
2023-04-27T06:58:43.442Z,0.20
2023-04-27T07:01:32.395Z,2.55
2023-04-27T07:04:22.902Z,1.73
2023-04-27T07:07:11.847Z,1.35
2023-04-27T07:10:01.975Z,1.08
2023-04-27T07:12:51.156Z,2.45
2023-04-27T07:15:39.761Z,5.40
2023-04-27T07:18:29.099Z,5.28
2023-04-27T07:21:19.210Z,1.83
2023-04-27T07:24:08.541Z,0.88
2023-04-27T07:26:58.092Z,0.93
2023-04-27T07:29:47.236Z,2.10
2023-04-27T07:32:35.870Z,1.23
2023-04-27T07:35:24.818Z,1.05
2023-04-27T07:38:14.807Z,1.45
2023-04-27T07:41:04.564Z,1.38
2023-04-27T07:43:53.658Z,1.20
2023-04-27T07:46:42.356Z,4.03
2023-04-27T07:49:31.198Z,1.08
2023-04-27T07:52:19.953Z,2.22
2023-04-27T07:55:11.080Z,1.38
2023-04-27T07:57:59.690Z,2.78
2023-04-27T08:00:48.681Z,1.50
2023-04-27T08:03:38.081Z,1.23
2023-04-27T08:06:28.846Z,1.42
2023-04-27T08:09:18.210Z,0.90
2023-04-27T08:12:08.624Z,0.82
2023-04-27T08:14:57.457Z,2.47
2023-04-27T08:17:47.282Z,1.33
2023-04-27T08:20:35.915Z,0.85
2023-04-27T08:23:29.118Z,0.80
2023-04-27T08:26:17.792Z,0.75
2023-04-27T08:29:15.816Z,1.63
2023-04-27T08:32:12.967Z,1.33
2023-04-27T08:35:01.660Z,3.25
2023-04-27T08:37:50.559Z,0.82
2023-04-27T08:40:44.386Z,0.65
2023-04-27T08:43:36.735Z,1.05
2023-04-27T08:46:28.084Z,1.42
2023-04-27T08:49:17.340Z,1.13
2023-04-27T08:52:06.418Z,1.40
2023-04-27T08:54:55.689Z,0.60
2023-04-27T08:57:44.246Z,0.50
2023-04-27T09:00:41.570Z,1.35
2023-04-27T09:03:32.387Z,1.80
2023-04-27T09:06:31.526Z,1.05
2023-04-27T09:09:24.437Z,0.82
2023-04-27T09:12:17.812Z,1.58
2023-04-27T09:15:08.519Z,0.32
2023-04-27T09:17:57.574Z,1.58
2023-04-27T09:20:48.654Z,0.98
2023-04-27T09:23:38.585Z,1.42
2023-04-27T09:26:31.434Z,1.00
2023-04-27T09:29:20.213Z,1.63
2023-04-27T09:32:20.638Z,2.08
2023-04-27T09:35:21.894Z,0.75
2023-04-27T09:38:11.945Z,0.47
2023-04-27T09:41:01.452Z,2.53
2023-04-27T09:43:50.601Z,1.05
2023-04-27T09:46:39.718Z,0.57
2023-04-27T09:49:29.257Z,1.50
2023-04-27T09:52:17.880Z,1.85
2023-04-27T09:55:11.951Z,3.22
2023-04-27T09:58:11.599Z,4.05
2023-04-27T10:01:10.777Z,2.90
2023-04-27T10:04:10.639Z,3.47
2023-04-27T10:07:01.850Z,4.43
2023-04-27T10:09:52.305Z,4.45
2023-04-27T10:12:42.592Z,2.88
2023-04-27T10:15:31.978Z,4.30
2023-04-27T10:18:32.443Z,7.28
2023-04-27T10:21:21.387Z,3.72
2023-04-27T10:24:10.802Z,3.08
2023-04-27T10:27:05.656Z,4.50
2023-04-27T10:29:55.794Z,2.50
2023-04-27T10:32:53.164Z,2.00
2023-04-27T10:35:44.215Z,5.45
2023-04-27T10:38:33.124Z,2.72
2023-04-27T10:41:23.487Z,1.83
2023-04-27T10:44:18.821Z,1.73
2023-04-27T10:47:20.139Z,1.77
2023-04-27T10:50:11.421Z,1.20
2023-04-27T10:53:03.570Z,1.65
2023-04-27T10:55:57.455Z,2.83
2023-04-27T10:58:49.366Z,3.53
2023-04-27T11:01:38.872Z,1.33
2023-04-27T11:04:42.490Z,1.92
2023-04-27T11:07:31.271Z,2.85
2023-04-27T11:10:21.207Z,1.65
2023-04-27T11:13:11.827Z,1.23
2023-04-27T11:16:01.705Z,2.50
2023-04-27T11:18:50.469Z,2.05
2023-04-27T11:21:43.563Z,1.85
2023-04-27T11:24:32.350Z,2.03
2023-04-27T11:27:22.308Z,3.70
2023-04-27T11:30:22.339Z,4.13
2023-04-27T11:33:11.352Z,2.17
2023-04-27T11:36:01.049Z,1.92
2023-04-27T11:38:51.494Z,1.38
2023-04-27T11:41:45.749Z,1.33
2023-04-27T11:44:35.278Z,0.75
2023-04-27T11:47:27.982Z,0.77
2023-04-27T11:50:16.808Z,0.63
2023-04-27T11:53:05.644Z,3.03
2023-04-27T11:55:55.840Z,0.98
2023-04-27T11:58:46.435Z,0.60
2023-04-27T12:01:38.351Z,1.92
2023-04-27T12:04:27.569Z,1.55
2023-04-27T12:07:16.453Z,0.60
2023-04-27T12:10:05.704Z,3.70
2023-04-27T12:12:55.979Z,2.45
2023-04-27T12:15:45.194Z,1.67
2023-04-27T12:18:34.068Z,2.42
2023-04-27T12:21:22.753Z,0.68
2023-04-27T12:24:11.894Z,3.10
2023-04-27T12:27:01.426Z,0.75
2023-04-27T12:29:52.436Z,0.75
2023-04-27T12:32:41.145Z,0.65
2023-04-27T12:35:32.045Z,0.98
2023-04-27T12:38:20.953Z,0.57
2023-04-27T12:41:09.570Z,0.60
2023-04-27T12:43:58.481Z,3.05
2023-04-27T12:46:49.184Z,0.60
2023-04-27T12:49:38.026Z,0.80
2023-04-27T12:52:26.848Z,0.60
2023-04-27T12:55:25.125Z,0.30
2023-04-27T12:58:20.789Z,2.08
2023-04-27T13:01:14.877Z,0.40
2023-04-27T13:04:07.053Z,1.48
2023-04-27T13:06:55.861Z,0.30
2023-04-27T13:09:44.578Z,0.80
2023-04-27T13:12:33.573Z,1.85
2023-04-27T13:15:22.738Z,0.70
2023-04-27T13:18:11.507Z,0.50
2023-04-27T13:21:01.506Z,4.07
2023-04-27T13:23:51.224Z,4.63
2023-04-27T13:26:39.858Z,3.88
2023-04-27T13:29:28.510Z,3.47
2023-04-27T13:32:17.156Z,3.45
2023-04-27T13:35:07.726Z,9.18
2023-04-27T13:37:57.838Z,7.43
2023-04-27T13:40:46.606Z,4.53
2023-04-27T13:43:35.680Z,3.70
2023-04-27T13:46:24.421Z,7.50
2023-04-27T13:49:13.098Z,3.58
2023-04-27T13:52:01.905Z,4.25
2023-04-27T13:54:51.913Z,4.78
2023-04-27T13:57:40.720Z,6.72
2023-04-27T14:00:33.251Z,3.50
2023-04-27T14:03:22.810Z,5.70
2023-04-27T14:06:11.721Z,3.45
2023-04-27T14:09:00.448Z,3.65
2023-04-27T14:11:56.172Z,5.43
2023-04-27T14:14:45.376Z,3.97
2023-04-27T14:17:34.023Z,5.07
2023-04-27T14:20:22.838Z,6.30
2023-04-27T14:23:12.826Z,5.03
2023-04-27T14:26:01.478Z,6.55
2023-04-27T14:28:57.427Z,5.30
2023-04-27T14:31:47.957Z,7.03
2023-04-27T14:34:36.812Z,2.78
2023-04-27T14:37:25.586Z,2.25
2023-04-27T14:40:14.963Z,3.80
2023-04-27T14:43:03.731Z,2.88
2023-04-27T14:45:59.499Z,6.60
2023-04-27T14:48:51.431Z,5.68
2023-04-27T14:51:42.004Z,1.95
2023-04-27T14:54:32.347Z,7.45
2023-04-27T14:57:21.175Z,43.47
2023-04-27T15:00:11.138Z,14.00
2023-04-27T15:03:01.421Z,22.65
2023-04-27T15:05:50.321Z,24.40
2023-04-27T15:08:38.937Z,10.02
2023-04-27T15:11:27.581Z,7.22
2023-04-27T15:14:16.595Z,4.90
2023-04-27T15:17:05.309Z,6.70
2023-04-27T15:19:56.295Z,12.18
2023-04-27T15:22:45.020Z,11.05
2023-04-27T15:25:33.594Z,35.65
2023-04-27T15:28:22.369Z,27.55
2023-04-27T15:31:11.132Z,19.25
2023-04-27T15:33:59.984Z,72.95
2023-04-27T15:36:49.957Z,13.98
2023-04-27T15:39:38.629Z,10.32
2023-04-27T15:42:27.557Z,22.55
2023-04-27T15:45:16.532Z,17.33
2023-04-27T15:48:05.609Z,12.27
2023-04-27T15:50:54.567Z,8.10
2023-04-27T15:53:44.683Z,17.33
2023-04-27T15:56:33.414Z,11.60
2023-04-27T15:59:22.199Z,12.57
2023-04-27T16:02:11.137Z,6.55
2023-04-27T16:04:59.820Z,3.05
2023-04-27T16:07:48.489Z,8.30
2023-04-27T16:10:38.541Z,6.32
2023-04-27T16:13:28.462Z,7.40
2023-04-27T16:16:17.381Z,4.88
2023-04-27T16:19:07.490Z,5.80
2023-04-27T16:21:56.305Z,2.22
2023-04-27T16:24:44.953Z,9.65
2023-04-27T16:27:34.955Z,6.75
2023-04-27T16:30:24.433Z,4.10
2023-04-27T16:33:13.102Z,5.93
2023-04-27T16:36:01.747Z,2.75
2023-04-27T16:38:50.521Z,3.13
2023-04-27T16:41:39.154Z,3.80
2023-04-27T16:44:29.222Z,2.53
2023-04-27T16:47:18.105Z,2.80
2023-04-27T16:50:07.519Z,4.97
2023-04-27T16:52:56.517Z,3.33
2023-04-27T16:55:45.128Z,2.30
2023-04-27T16:58:36.030Z,3.05
2023-04-27T17:01:27.156Z,5.32
2023-04-27T17:04:15.914Z,5.45
2023-04-27T17:07:04.575Z,4.43
2023-04-27T17:09:53.206Z,3.13
2023-04-27T17:12:41.799Z,1.80
2023-04-27T17:15:30.477Z,5.95
2023-04-27T17:18:21.022Z,2.40
2023-04-27T17:21:09.821Z,4.60
2023-04-27T17:23:58.542Z,4.20
2023-04-27T17:26:48.249Z,4.45
2023-04-27T17:29:37.312Z,2.28
2023-04-27T17:32:26.288Z,2.70
2023-04-27T17:35:16.377Z,4.00
2023-04-27T17:38:04.990Z,4.18
2023-04-27T17:40:54.050Z,4.20
2023-04-27T17:43:42.928Z,3.67
2023-04-27T17:46:31.763Z,2.55
2023-04-27T17:49:20.678Z,2.30
2023-04-27T17:52:10.868Z,2.47
2023-04-27T17:54:59.466Z,2.55
2023-04-27T17:57:48.246Z,2.70
2023-04-27T18:00:37.014Z,1.85
2023-04-27T18:03:26.886Z,1.98
2023-04-27T18:06:16.009Z,2.13
2023-04-27T18:09:06.355Z,1.95
2023-04-27T18:11:55.046Z,6.35
2023-04-27T18:14:43.702Z,3.45
2023-04-27T18:17:32.540Z,2.00
2023-04-27T18:20:23.394Z,2.50
2023-04-27T18:23:12.246Z,2.55
2023-04-27T18:26:02.307Z,1.98
2023-04-27T18:28:50.933Z,2.78
2023-04-27T18:31:39.590Z,4.45
2023-04-27T18:34:28.206Z,2.80
2023-04-27T18:37:16.990Z,1.77
2023-04-27T18:40:06.871Z,6.28
2023-04-27T18:42:56.805Z,2.25
2023-04-27T18:45:45.476Z,2.92
2023-04-27T18:48:34.136Z,3.97
2023-04-27T18:51:26.138Z,3.30
2023-04-27T18:54:14.873Z,3.25
2023-04-27T18:57:04.241Z,2.58
2023-04-27T18:59:54.241Z,2.25
2023-04-27T19:02:42.951Z,3.05
2023-04-27T19:05:32.437Z,4.28
2023-04-27T19:08:21.263Z,3.28
2023-04-27T19:11:09.889Z,1.65
2023-04-27T19:13:58.503Z,4.38
2023-04-27T19:16:48.486Z,6.72
2023-04-27T19:19:37.206Z,9.75
2023-04-27T19:22:27.301Z,10.80
2023-04-27T19:25:19.906Z,7.50
2023-04-27T19:28:09.410Z,4.45
2023-04-27T19:30:58.103Z,7.93
2023-04-27T19:36:43.245Z,13.23
2023-04-27T19:39:34.198Z,11.48
2023-04-27T19:42:24.829Z,14.38
2023-04-27T19:45:13.747Z,17.52
2023-04-27T19:48:02.398Z,11.40
2023-04-27T19:50:52.736Z,13.60
2023-04-27T19:53:41.337Z,12.27
2023-04-27T19:56:29.967Z,8.73
2023-04-27T19:59:18.599Z,8.88
2023-04-27T20:02:07.464Z,8.52
2023-04-27T20:04:56.662Z,14.77
2023-04-27T20:07:47.023Z,12.02
2023-04-27T20:10:35.692Z,10.30
2023-04-27T20:13:24.226Z,12.57
2023-04-27T20:16:13.083Z,9.50
2023-04-27T20:19:01.758Z,9.15
2023-04-27T20:21:50.385Z,8.35
2023-04-27T20:24:40.365Z,7.85
2023-04-27T20:27:29.036Z,11.35
2023-04-27T20:30:17.686Z,10.63
2023-04-27T20:33:07.024Z,15.48
2023-04-27T20:36:01.150Z,14.75
2023-04-27T20:38:55.319Z,8.23
2023-04-27T20:41:45.379Z,13.05
2023-04-27T20:44:34.055Z,17.15
2023-04-27T20:47:22.848Z,16.15
2023-04-27T20:50:11.748Z,14.13
2023-04-27T20:53:00.547Z,21.90
2023-04-27T20:55:49.118Z,20.63
2023-04-27T20:58:39.081Z,13.95
2023-04-27T21:01:27.924Z,16.23
2023-04-27T21:04:16.864Z,12.13
2023-04-27T21:07:05.934Z,13.23
2023-04-27T21:09:54.534Z,11.10
2023-04-27T21:12:43.109Z,10.75
2023-04-27T21:15:33.452Z,10.68
2023-04-27T21:18:29.592Z,10.60
2023-04-27T21:21:18.691Z,13.07
2023-04-27T21:24:08.407Z,8.65
2023-04-27T21:26:57.812Z,11.57
2023-04-27T21:29:46.537Z,14.02
2023-04-27T21:32:39.696Z,7.75
2023-04-27T21:35:29.379Z,8.55
2023-04-27T21:38:18.076Z,6.68
2023-04-27T21:41:06.830Z,10.68
2023-04-27T21:43:55.512Z,6.38
2023-04-27T21:46:44.370Z,7.22
2023-04-27T21:49:34.576Z,7.05
2023-04-27T21:52:24.395Z,7.82
2023-04-27T21:55:13.346Z,7.13
2023-04-27T21:58:02.125Z,6.20
2023-04-27T22:00:51.116Z,6.10
2023-04-27T22:03:39.873Z,7.57
2023-04-27T22:06:30.704Z,7.00
2023-04-27T22:09:19.419Z,6.05
2023-04-27T22:12:08.478Z,8.70
2023-04-27T22:14:57.120Z,7.07
2023-04-27T22:17:45.786Z,5.95
2023-04-27T22:20:34.493Z,5.72
2023-04-27T22:23:24.497Z,8.00
2023-04-27T22:26:13.363Z,7.93
2023-04-27T22:29:01.918Z,7.15
2023-04-27T22:31:52.024Z,5.30
2023-04-27T22:34:40.734Z,4.88
2023-04-27T22:37:29.857Z,5.72
2023-04-27T22:40:20.402Z,5.45
2023-04-27T22:43:08.989Z,8.57
2023-04-27T22:45:57.697Z,6.93
2023-04-27T22:48:46.316Z,6.13
2023-04-27T22:51:36.600Z,7.78
2023-04-27T22:54:25.287Z,7.20
2023-04-27T22:57:15.326Z,3.78
2023-04-27T23:00:05.434Z,6.60
2023-04-27T23:02:54.175Z,4.95
2023-04-27T23:05:43.282Z,3.70
2023-04-27T23:08:31.932Z,4.07
2023-04-27T23:11:20.777Z,3.85
2023-04-27T23:14:11.647Z,3.85
2023-04-27T23:17:01.812Z,4.97
2023-04-27T23:19:50.559Z,6.03
2023-04-27T23:22:42.971Z,6.45
2023-04-27T23:25:33.571Z,5.13
2023-04-27T23:28:22.481Z,5.15
2023-04-27T23:31:12.646Z,3.35
2023-04-27T23:34:01.332Z,8.32
2023-04-27T23:36:49.857Z,4.72
2023-04-27T23:39:38.444Z,4.50
2023-04-27T23:42:27.593Z,5.50
2023-04-27T23:45:16.252Z,3.72
2023-04-27T23:48:06.890Z,5.95
2023-04-27T23:51:00.878Z,3.72
2023-04-27T23:53:49.481Z,7.22
2023-04-27T23:56:38.164Z,3.60
2023-04-27T23:59:26.776Z,5.68
